createdAt,value
2018-06-20T00:00:12.005Z,20.2
2018-06-20T00:01:13.628Z,20.1
2018-06-20T00:02:15.251Z,20.1
2018-06-20T00:03:16.861Z,20.0
2018-06-20T00:04:18.478Z,20.2
2018-06-20T00:05:20.100Z,20.1
2018-06-20T00:06:21.714Z,20.2
2018-06-20T00:07:23.346Z,20.0
2018-06-20T00:08:24.939Z,20.0
2018-06-20T00:09:26.554Z,20.0
2018-06-20T00:10:28.173Z,20.1
2018-06-20T00:11:29.826Z,20.1
2018-06-20T00:12:31.447Z,20.1
2018-06-20T00:13:33.062Z,20.1
2018-06-20T00:14:34.683Z,20.0
2018-06-20T00:15:36.296Z,20.0
2018-06-20T00:16:37.917Z,20.0
2018-06-20T00:17:39.532Z,19.9
2018-06-20T00:18:41.145Z,19.9
2018-06-20T00:19:42.768Z,20.0
2018-06-20T00:20:44.382Z,20.0
2018-06-20T00:21:45.994Z,19.9
2018-06-20T00:22:47.610Z,19.9
2018-06-20T00:23:49.225Z,19.9
2018-06-20T00:24:50.847Z,19.9
2018-06-20T00:25:52.495Z,20.0
2018-06-20T00:26:54.130Z,19.8
2018-06-20T00:27:55.740Z,19.9
2018-06-20T00:28:57.364Z,19.7
2018-06-20T00:29:58.981Z,19.8
2018-06-20T00:31:00.602Z,19.9
2018-06-20T00:32:02.220Z,19.9
2018-06-20T00:33:03.839Z,19.7
2018-06-20T00:34:05.457Z,19.8
2018-06-20T00:35:07.074Z,19.8
2018-06-20T00:36:08.688Z,19.7
2018-06-20T00:37:11.269Z,19.8
2018-06-20T00:38:12.890Z,19.8
2018-06-20T00:39:14.500Z,19.7
2018-06-20T00:40:16.123Z,19.7
2018-06-20T00:41:17.742Z,19.8
2018-06-20T00:42:19.358Z,19.6
2018-06-20T00:43:20.979Z,19.6
2018-06-20T00:44:22.593Z,19.6
2018-06-20T00:45:24.207Z,19.6
2018-06-20T00:46:25.836Z,19.5
2018-06-20T00:47:27.452Z,19.6
2018-06-20T00:48:29.067Z,19.6
2018-06-20T00:49:30.685Z,19.6
2018-06-20T00:50:32.294Z,19.6
2018-06-20T00:51:33.914Z,19.5
2018-06-20T00:52:35.590Z,19.5
2018-06-20T00:53:37.147Z,19.5
2018-06-20T00:54:38.764Z,19.6
2018-06-20T00:55:40.389Z,19.6
2018-06-20T00:56:41.999Z,19.6
2018-06-20T00:57:43.612Z,19.5
2018-06-20T00:58:45.227Z,19.5
2018-06-20T00:59:46.843Z,19.6
2018-06-20T01:00:48.461Z,19.5
2018-06-20T01:01:50.081Z,19.6
2018-06-20T01:02:51.694Z,19.4
2018-06-20T01:03:53.313Z,19.5
2018-06-20T01:04:54.930Z,19.4
2018-06-20T01:05:56.544Z,19.4
2018-06-20T01:06:58.167Z,19.4
2018-06-20T01:07:59.781Z,19.4
2018-06-20T01:09:01.399Z,19.4
2018-06-20T01:10:03.016Z,19.4
2018-06-20T01:11:04.633Z,19.4
2018-06-20T01:12:06.251Z,19.4
2018-06-20T01:13:07.863Z,19.5
2018-06-20T01:14:09.478Z,19.4
2018-06-20T01:15:11.099Z,19.3
2018-06-20T01:16:12.716Z,19.3
2018-06-20T01:17:14.332Z,19.4
2018-06-20T01:18:15.950Z,19.3
2018-06-20T01:19:17.563Z,19.3
2018-06-20T01:20:19.183Z,19.2
2018-06-20T01:21:20.800Z,19.3
2018-06-20T01:22:22.419Z,19.2
2018-06-20T01:23:24.035Z,19.3
2018-06-20T01:24:25.650Z,19.3
2018-06-20T01:25:27.269Z,19.2
2018-06-20T01:26:28.883Z,19.3
2018-06-20T01:27:31.489Z,19.3
2018-06-20T01:28:33.103Z,19.2
2018-06-20T01:29:34.717Z,19.2
2018-06-20T01:30:36.339Z,19.3
2018-06-20T01:31:37.962Z,19.3
2018-06-20T01:32:39.575Z,19.2
2018-06-20T01:33:41.193Z,19.1
2018-06-20T01:34:42.809Z,19.3
2018-06-20T01:35:44.419Z,19.3
2018-06-20T01:36:46.040Z,19.3
2018-06-20T01:37:47.660Z,19.2
2018-06-20T01:38:49.278Z,19.2
2018-06-20T01:39:50.914Z,19.3
2018-06-20T01:40:52.525Z,19.2
2018-06-20T01:41:54.140Z,19.3
2018-06-20T01:42:55.759Z,19.4
2018-06-20T01:43:57.380Z,19.3
2018-06-20T01:44:58.995Z,19.2
2018-06-20T01:46:00.609Z,19.3
2018-06-20T01:47:02.227Z,19.4
2018-06-20T01:48:03.834Z,19.2
2018-06-20T01:49:05.449Z,19.4
2018-06-20T01:50:07.066Z,19.3
2018-06-20T01:51:08.686Z,19.2
2018-06-20T01:52:10.306Z,19.2
2018-06-20T01:53:11.921Z,19.3
2018-06-20T01:54:13.536Z,19.3
2018-06-20T01:55:15.154Z,19.4
2018-06-20T01:56:16.764Z,19.3
2018-06-20T01:57:18.384Z,19.3
2018-06-20T01:58:20.003Z,19.3
2018-06-20T01:59:21.620Z,19.3
2018-06-20T02:00:23.234Z,19.3
2018-06-20T02:01:24.858Z,19.2
2018-06-20T02:02:26.473Z,19.4
2018-06-20T02:03:28.089Z,19.3
2018-06-20T02:04:29.712Z,19.3
2018-06-20T02:05:31.328Z,19.3
2018-06-20T02:06:32.950Z,19.4
2018-06-20T02:07:34.571Z,19.3
2018-06-20T02:08:36.185Z,19.3
2018-06-20T02:09:37.799Z,19.3
2018-06-20T02:10:39.411Z,19.4
2018-06-20T02:11:41.034Z,19.4
2018-06-20T02:12:42.651Z,19.4
2018-06-20T02:13:44.266Z,19.3
2018-06-20T02:14:45.890Z,19.3
2018-06-20T02:15:47.501Z,19.2
2018-06-20T02:16:49.116Z,19.4
2018-06-20T02:17:50.734Z,19.3
2018-06-20T02:18:52.354Z,19.4
2018-06-20T02:19:53.969Z,19.3
2018-06-20T02:20:55.590Z,19.3
2018-06-20T02:21:57.216Z,19.4
2018-06-20T02:22:58.833Z,19.3
2018-06-20T02:24:00.451Z,19.3
2018-06-20T02:25:02.082Z,19.3
2018-06-20T02:26:03.695Z,19.3
2018-06-20T02:27:05.316Z,19.4
2018-06-20T02:28:06.930Z,19.4
2018-06-20T02:29:08.544Z,19.3
2018-06-20T02:30:10.162Z,19.3
2018-06-20T02:31:11.774Z,19.4
2018-06-20T02:32:13.399Z,19.4
2018-06-20T02:33:15.011Z,19.3
2018-06-20T02:34:16.633Z,19.3
2018-06-20T02:35:18.247Z,19.3
2018-06-20T02:36:19.871Z,19.3
2018-06-20T02:37:21.489Z,19.3
2018-06-20T02:38:23.099Z,19.3
2018-06-20T02:39:24.721Z,19.3
2018-06-20T02:40:26.334Z,19.4
2018-06-20T02:41:27.945Z,19.4
2018-06-20T02:42:29.567Z,19.5
2018-06-20T02:43:31.185Z,19.3
2018-06-20T02:44:32.798Z,19.4
2018-06-20T02:45:34.421Z,19.4
2018-06-20T02:46:36.030Z,19.5
2018-06-20T02:47:37.646Z,19.4
2018-06-20T02:48:39.264Z,19.4
2018-06-20T02:49:40.889Z,19.5
2018-06-20T02:50:42.497Z,19.3
2018-06-20T02:51:44.117Z,19.4
2018-06-20T02:52:45.801Z,19.4
2018-06-20T02:53:47.338Z,19.3
2018-06-20T02:54:48.953Z,19.5
2018-06-20T02:55:50.567Z,19.4
2018-06-20T02:56:52.190Z,19.4
2018-06-20T02:57:53.810Z,19.4
2018-06-20T02:58:55.428Z,19.4
2018-06-20T02:59:57.048Z,19.4
2018-06-20T03:00:58.659Z,19.4
2018-06-20T03:02:00.836Z,19.4
2018-06-20T03:03:02.475Z,19.4
2018-06-20T03:04:04.091Z,19.4
2018-06-20T03:05:05.713Z,19.5
2018-06-20T03:06:07.331Z,19.5
2018-06-20T03:07:08.946Z,19.4
2018-06-20T03:08:10.570Z,19.4
2018-06-20T03:09:12.186Z,19.5
2018-06-20T03:10:13.808Z,19.4
2018-06-20T03:11:15.428Z,19.4
2018-06-20T03:12:17.051Z,19.4
2018-06-20T03:13:18.661Z,19.3
2018-06-20T03:14:20.277Z,19.3
2018-06-20T03:15:21.893Z,19.4
2018-06-20T03:16:23.515Z,19.4
2018-06-20T03:17:25.133Z,19.5
2018-06-20T03:18:26.752Z,19.5
2018-06-20T03:19:28.370Z,19.5
2018-06-20T03:20:29.988Z,19.5
2018-06-20T03:21:31.605Z,19.5
2018-06-20T03:22:33.225Z,19.4
2018-06-20T03:23:34.843Z,19.6
2018-06-20T03:24:36.466Z,19.4
2018-06-20T03:25:38.090Z,19.5
2018-06-20T03:26:39.716Z,19.5
2018-06-20T03:27:41.332Z,19.4
2018-06-20T03:28:42.951Z,19.5
2018-06-20T03:29:44.575Z,19.5
2018-06-20T03:30:46.199Z,19.5
2018-06-20T03:31:47.818Z,19.4
2018-06-20T03:32:49.433Z,19.4
2018-06-20T03:33:51.059Z,19.5
2018-06-20T03:34:52.673Z,19.4
2018-06-20T03:35:54.297Z,19.5
2018-06-20T03:36:55.919Z,19.5
2018-06-20T03:37:57.540Z,19.5
2018-06-20T03:38:59.163Z,19.5
2018-06-20T03:40:00.781Z,19.5
2018-06-20T03:41:02.401Z,19.5
2018-06-20T03:42:04.023Z,19.5
2018-06-20T03:43:05.637Z,19.5
2018-06-20T03:44:07.260Z,19.5
2018-06-20T03:45:08.882Z,19.5
2018-06-20T03:46:10.500Z,19.5
2018-06-20T03:47:12.126Z,19.5
2018-06-20T03:48:13.750Z,19.5
2018-06-20T03:49:15.368Z,19.6
2018-06-20T03:50:16.985Z,19.5
2018-06-20T03:51:18.603Z,19.6
2018-06-20T03:52:20.230Z,19.6
2018-06-20T03:53:21.848Z,19.6
2018-06-20T03:54:23.468Z,19.6
2018-06-20T03:55:25.088Z,19.6
2018-06-20T03:56:26.713Z,19.5
2018-06-20T03:57:28.328Z,19.6
2018-06-20T03:58:29.950Z,19.5
2018-06-20T03:59:31.575Z,19.6
2018-06-20T04:00:33.191Z,19.5
2018-06-20T04:01:34.817Z,19.7
2018-06-20T04:02:36.434Z,19.6
2018-06-20T04:03:38.055Z,19.5
2018-06-20T04:04:39.673Z,19.6
2018-06-20T04:05:41.290Z,19.7
2018-06-20T04:06:42.919Z,19.7
2018-06-20T04:07:44.541Z,19.6
2018-06-20T04:08:46.171Z,19.7
2018-06-20T04:09:47.788Z,19.8
2018-06-20T04:10:49.412Z,19.8
2018-06-20T04:11:51.027Z,19.7
2018-06-20T04:12:52.654Z,19.6
2018-06-20T04:13:54.268Z,19.6
2018-06-20T04:14:55.892Z,19.7
2018-06-20T04:15:57.520Z,19.8
2018-06-20T04:16:59.137Z,19.8
2018-06-20T04:18:00.758Z,19.8
2018-06-20T04:19:02.410Z,19.7
2018-06-20T04:20:04.035Z,19.7
2018-06-20T04:21:05.657Z,19.7
2018-06-20T04:22:07.282Z,19.9
2018-06-20T04:23:08.902Z,19.8
2018-06-20T04:24:10.528Z,19.7
2018-06-20T04:25:12.147Z,19.7
2018-06-20T04:26:13.768Z,19.8
2018-06-20T04:27:15.388Z,19.8
2018-06-20T04:28:17.015Z,19.8
2018-06-20T04:29:18.637Z,19.8
2018-06-20T04:30:20.258Z,19.9
2018-06-20T04:31:21.886Z,19.8
2018-06-20T04:32:23.503Z,19.8
2018-06-20T04:33:25.127Z,20.0
2018-06-20T04:34:26.754Z,19.9
2018-06-20T04:35:28.372Z,19.9
2018-06-20T04:36:29.996Z,20.0
2018-06-20T04:37:31.622Z,20.0
2018-06-20T04:38:33.244Z,20.0
2018-06-20T04:39:34.869Z,20.1
2018-06-20T04:40:36.490Z,20.1
2018-06-20T04:41:38.121Z,20.1
2018-06-20T04:42:39.743Z,20.1
2018-06-20T04:43:41.364Z,20.1
2018-06-20T04:44:43.020Z,20.1
2018-06-20T04:45:44.573Z,20.2
2018-06-20T04:46:46.196Z,20.2
2018-06-20T04:47:47.816Z,20.2
2018-06-20T04:48:49.437Z,20.2
2018-06-20T04:49:51.059Z,20.2
2018-06-20T04:50:52.679Z,20.3
2018-06-20T04:51:54.309Z,20.2
2018-06-20T04:52:55.930Z,20.2
2018-06-20T04:53:57.552Z,20.3
2018-06-20T04:54:59.176Z,20.3
2018-06-20T04:56:00.792Z,20.5
2018-06-20T04:57:02.414Z,20.5
2018-06-20T04:58:04.038Z,20.4
2018-06-20T04:59:05.653Z,20.4
2018-06-20T05:00:07.279Z,20.4
2018-06-20T05:01:08.898Z,20.6
2018-06-20T05:02:11.357Z,20.6
2018-06-20T05:03:12.976Z,20.6
2018-06-20T05:04:14.608Z,20.7
2018-06-20T05:05:16.231Z,20.7
2018-06-20T05:06:17.857Z,20.8
2018-06-20T05:07:19.486Z,20.8
2018-06-20T05:08:21.104Z,20.9
2018-06-20T05:09:22.731Z,21.0
2018-06-20T05:10:24.519Z,21.0
2018-06-20T05:11:26.145Z,21.1
2018-06-20T05:12:27.764Z,21.0
2018-06-20T05:13:29.396Z,21.2
2018-06-20T05:14:31.019Z,21.2
2018-06-20T05:15:32.639Z,21.3
2018-06-20T05:16:34.265Z,21.2
2018-06-20T05:17:35.884Z,21.3
2018-06-20T05:18:37.503Z,21.3
2018-06-20T05:19:39.134Z,21.3
2018-06-20T05:20:40.838Z,21.4
2018-06-20T05:21:42.459Z,21.3
2018-06-20T05:22:44.083Z,21.5
2018-06-20T05:23:45.707Z,21.4
2018-06-20T05:24:47.325Z,21.5
2018-06-20T05:25:48.958Z,21.5
2018-06-20T05:26:50.574Z,21.4
2018-06-20T05:27:52.194Z,21.5
2018-06-20T05:28:53.821Z,21.6
2018-06-20T05:29:55.436Z,21.5
2018-06-20T05:30:57.065Z,21.5
2018-06-20T05:31:58.687Z,21.6
2018-06-20T05:33:00.311Z,21.5
2018-06-20T05:34:01.929Z,21.6
2018-06-20T05:35:03.557Z,21.5
2018-06-20T05:36:05.180Z,21.8
2018-06-20T05:37:06.803Z,21.7
2018-06-20T05:38:08.429Z,21.8
2018-06-20T05:39:10.048Z,21.8
2018-06-20T05:40:11.668Z,21.9
2018-06-20T05:41:13.298Z,21.9
2018-06-20T05:42:14.919Z,21.8
2018-06-20T05:43:16.542Z,21.8
2018-06-20T05:44:18.167Z,21.8
2018-06-20T05:45:19.784Z,21.9
2018-06-20T05:46:21.410Z,21.9
2018-06-20T05:47:23.028Z,22.0
2018-06-20T05:48:24.649Z,22.0
2018-06-20T05:49:26.270Z,22.0
2018-06-20T05:50:27.893Z,22.0
2018-06-20T05:51:29.519Z,22.0
2018-06-20T05:52:31.144Z,22.1
2018-06-20T05:53:32.758Z,22.1
2018-06-20T05:54:34.381Z,22.2
2018-06-20T05:55:36.000Z,22.1
2018-06-20T05:56:37.620Z,22.2
2018-06-20T05:57:39.248Z,22.2
2018-06-20T05:58:40.868Z,22.2
2018-06-20T05:59:42.495Z,22.3
2018-06-20T06:00:44.115Z,22.3
2018-06-20T06:01:45.734Z,22.3
2018-06-20T06:02:47.357Z,22.5
2018-06-20T06:03:48.977Z,22.5
2018-06-20T06:04:50.596Z,22.3
2018-06-20T06:05:52.226Z,22.5
2018-06-20T06:06:53.847Z,22.5
2018-06-20T06:07:55.490Z,22.6
2018-06-20T06:08:57.109Z,22.6
2018-06-20T06:09:58.740Z,22.6
2018-06-20T06:11:00.365Z,22.8
2018-06-20T06:12:02.043Z,22.7
2018-06-20T06:13:03.612Z,23.0
2018-06-20T06:14:05.230Z,22.9
2018-06-20T06:15:06.854Z,23.0
2018-06-20T06:16:08.482Z,22.9
2018-06-20T06:17:10.174Z,22.9
2018-06-20T06:18:11.739Z,23.0
2018-06-20T06:19:13.366Z,23.1
2018-06-20T06:20:14.983Z,23.0
2018-06-20T06:21:16.619Z,23.0
2018-06-20T06:22:18.238Z,23.0
2018-06-20T06:23:19.925Z,23.1
2018-06-20T06:24:21.484Z,23.1
2018-06-20T06:25:23.114Z,23.2
2018-06-20T06:26:24.734Z,23.2
2018-06-20T06:27:26.355Z,23.2
2018-06-20T06:28:27.983Z,23.3
2018-06-20T06:29:29.599Z,23.3
2018-06-20T06:30:31.268Z,23.3
2018-06-20T06:31:32.859Z,23.4
2018-06-20T06:32:34.491Z,23.4
2018-06-20T06:33:36.108Z,23.4
2018-06-20T06:34:37.733Z,23.5
2018-06-20T06:35:39.349Z,23.5
2018-06-20T06:36:40.983Z,23.6
2018-06-20T06:37:42.620Z,23.6
2018-06-20T06:38:44.234Z,23.7
2018-06-20T06:39:45.857Z,23.6
2018-06-20T06:40:47.481Z,23.7
2018-06-20T06:41:49.108Z,23.8
2018-06-20T06:42:50.728Z,23.7
2018-06-20T06:43:52.392Z,23.8
2018-06-20T06:44:53.978Z,23.9
2018-06-20T06:45:55.601Z,24.0
2018-06-20T06:46:57.229Z,24.1
2018-06-20T06:47:59.155Z,24.2
2018-06-20T06:49:00.782Z,24.3
2018-06-20T06:50:02.488Z,24.3
2018-06-20T06:51:04.024Z,24.3
2018-06-20T06:52:05.654Z,24.3
2018-06-20T06:53:07.272Z,24.4
2018-06-20T06:54:08.898Z,24.4
2018-06-20T06:55:10.525Z,24.4
2018-06-20T06:56:12.159Z,24.3
2018-06-20T06:57:13.783Z,24.5
2018-06-20T06:58:15.438Z,24.4
2018-06-20T06:59:17.117Z,24.5
2018-06-20T07:00:18.747Z,24.4
2018-06-20T07:01:20.523Z,24.5
2018-06-20T07:02:22.247Z,24.5
2018-06-20T07:03:23.975Z,24.5
2018-06-20T07:04:25.650Z,24.5
2018-06-20T07:05:27.322Z,24.5
2018-06-20T07:06:28.978Z,24.5
2018-06-20T07:07:30.616Z,24.6
2018-06-20T07:08:32.310Z,24.5
2018-06-20T07:09:33.953Z,24.5
2018-06-20T07:10:35.637Z,24.5
2018-06-20T07:11:37.365Z,24.6
2018-06-20T07:12:39.026Z,24.6
2018-06-20T07:13:40.734Z,24.6
2018-06-20T07:14:42.449Z,24.7
2018-06-20T07:15:44.186Z,24.8
2018-06-20T07:16:45.922Z,24.7
2018-06-20T07:17:47.718Z,24.8
2018-06-20T07:18:49.498Z,24.8
2018-06-20T07:19:51.268Z,24.7
2018-06-20T07:20:53.026Z,24.8
2018-06-20T07:21:54.801Z,24.8
2018-06-20T07:22:56.595Z,24.9
2018-06-20T07:23:58.349Z,25.0
2018-06-20T07:25:00.135Z,24.8
2018-06-20T07:26:01.872Z,24.8
2018-06-20T07:27:03.819Z,24.8
2018-06-20T07:28:05.646Z,24.9
2018-06-20T07:29:07.415Z,24.8
2018-06-20T07:30:09.382Z,24.8
2018-06-20T07:31:11.058Z,24.8
2018-06-20T07:32:13.018Z,25.0
2018-06-20T07:33:14.720Z,24.8
2018-06-20T07:34:16.686Z,24.8
2018-06-20T07:35:18.372Z,24.8
2018-06-20T07:36:20.179Z,24.6
2018-06-20T07:37:21.893Z,24.6
2018-06-20T07:38:23.756Z,24.5
2018-06-20T07:39:25.557Z,24.5
2018-06-20T07:40:27.261Z,24.5
2018-06-20T07:41:28.981Z,24.4
2018-06-20T07:42:30.968Z,24.5
2018-06-20T07:43:32.866Z,24.6
2018-06-20T07:44:34.682Z,24.6
2018-06-20T07:45:36.429Z,24.6
2018-06-20T07:46:38.209Z,24.5
2018-06-20T07:47:39.959Z,24.6
2018-06-20T07:48:41.679Z,24.7
2018-06-20T07:49:43.594Z,24.7
2018-06-20T07:50:45.387Z,24.8
2018-06-20T07:51:47.150Z,24.9
2018-06-20T07:52:48.857Z,25.0
2018-06-20T07:53:50.615Z,25.2
2018-06-20T07:54:52.408Z,25.4
2018-06-20T07:55:54.137Z,26.3
2018-06-20T07:56:56.074Z,27.6
2018-06-20T07:57:57.825Z,28.5
2018-06-20T07:58:59.605Z,29.7
2018-06-20T08:00:01.714Z,30.7
2018-06-20T08:01:03.548Z,31.4
2018-06-20T08:02:05.330Z,31.3
2018-06-20T08:03:07.404Z,31.8
2018-06-20T08:04:09.271Z,31.5
2018-06-20T08:05:11.060Z,31.2
2018-06-20T08:06:12.711Z,30.7
2018-06-20T08:07:14.341Z,30.1
2018-06-20T08:08:15.969Z,29.3
2018-06-20T08:09:17.602Z,29.0
2018-06-20T08:10:19.268Z,28.9
2018-06-20T08:11:20.875Z,28.5
2018-06-20T08:12:22.546Z,28.3
2018-06-20T08:13:24.138Z,28.3
2018-06-20T08:14:25.775Z,28.0
2018-06-20T08:15:27.402Z,27.9
2018-06-20T08:16:29.032Z,27.7
2018-06-20T08:17:30.659Z,28.5
2018-06-20T08:18:32.293Z,29.1
2018-06-20T08:19:33.919Z,29.9
2018-06-20T08:20:35.550Z,30.7
2018-06-20T08:21:37.183Z,31.3
2018-06-20T08:22:38.806Z,31.7
2018-06-20T08:23:40.438Z,32.2
2018-06-20T08:24:42.069Z,31.4
2018-06-20T08:25:43.764Z,31.7
2018-06-20T08:26:45.332Z,31.4
2018-06-20T08:27:46.965Z,31.2
2018-06-20T08:28:48.597Z,31.4
2018-06-20T08:29:50.225Z,31.8
2018-06-20T08:30:51.854Z,32.8
2018-06-20T08:31:53.490Z,33.3
2018-06-20T08:32:55.114Z,33.1
2018-06-20T08:33:56.752Z,32.4
2018-06-20T08:34:58.380Z,32.5
2018-06-20T08:36:00.027Z,32.1
2018-06-20T08:37:01.646Z,31.7
2018-06-20T08:38:03.276Z,32.1
2018-06-20T08:39:04.913Z,31.7
2018-06-20T08:40:06.539Z,31.3
2018-06-20T08:41:08.168Z,30.6
2018-06-20T08:42:09.807Z,30.1
2018-06-20T08:43:11.436Z,29.9
2018-06-20T08:44:13.068Z,29.7
2018-06-20T08:45:14.698Z,29.5
2018-06-20T08:46:16.329Z,29.4
2018-06-20T08:47:17.959Z,29.8
2018-06-20T08:48:19.593Z,30.6
2018-06-20T08:49:21.222Z,31.5
2018-06-20T08:50:22.853Z,32.2
2018-06-20T08:51:24.480Z,32.9
2018-06-20T08:52:26.120Z,33.5
2018-06-20T08:53:27.747Z,33.9
2018-06-20T08:54:29.383Z,34.1
2018-06-20T08:55:31.016Z,34.7
2018-06-20T08:56:32.648Z,35.2
2018-06-20T08:57:34.287Z,35.8
2018-06-20T08:58:35.918Z,36.2
2018-06-20T08:59:37.552Z,36.0
2018-06-20T09:00:39.184Z,35.6
2018-06-20T09:01:40.825Z,35.7
2018-06-20T09:02:42.463Z,35.6
2018-06-20T09:03:44.101Z,35.7
2018-06-20T09:04:45.732Z,35.1
2018-06-20T09:05:47.369Z,35.7
2018-06-20T09:06:49.005Z,35.3
2018-06-20T09:07:50.636Z,35.7
2018-06-20T09:08:52.275Z,35.8
2018-06-20T09:09:53.910Z,36.0
2018-06-20T09:10:55.550Z,36.3
2018-06-20T09:11:58.078Z,36.2
2018-06-20T09:12:59.708Z,36.5
2018-06-20T09:14:01.346Z,36.2
2018-06-20T09:15:02.981Z,36.4
2018-06-20T09:16:04.614Z,36.9
2018-06-20T09:17:06.248Z,36.8
2018-06-20T09:18:07.890Z,36.2
2018-06-20T09:19:09.525Z,36.0
2018-06-20T09:20:11.910Z,35.8
2018-06-20T09:21:13.545Z,35.4
2018-06-20T09:22:15.179Z,35.2
2018-06-20T09:23:16.814Z,34.4
2018-06-20T09:24:18.452Z,34.1
2018-06-20T09:25:20.088Z,33.6
2018-06-20T09:26:21.727Z,33.1
2018-06-20T09:27:23.355Z,33.8
2018-06-20T09:28:24.988Z,34.4
2018-06-20T09:29:26.627Z,35.1
2018-06-20T09:30:28.257Z,35.5
2018-06-20T09:31:29.897Z,35.8
2018-06-20T09:32:31.533Z,36.2
2018-06-20T09:33:33.175Z,36.8
2018-06-20T09:34:34.804Z,37.1
2018-06-20T09:35:36.442Z,37.4
2018-06-20T09:36:38.075Z,37.7
2018-06-20T09:37:39.712Z,37.8
2018-06-20T09:38:41.373Z,37.8
2018-06-20T09:39:43.079Z,37.7
2018-06-20T09:40:44.637Z,37.5
2018-06-20T09:41:46.270Z,38.0
2018-06-20T09:42:47.906Z,38.2
2018-06-20T09:43:50.168Z,37.7
2018-06-20T09:44:51.807Z,37.7
2018-06-20T09:45:53.448Z,37.8
2018-06-20T09:46:55.098Z,37.6
2018-06-20T09:47:56.731Z,38.1
2018-06-20T09:48:58.365Z,38.4
2018-06-20T09:50:00.008Z,38.9
2018-06-20T09:51:01.656Z,38.6
2018-06-20T09:52:03.295Z,38.1
2018-06-20T09:53:04.937Z,37.4
2018-06-20T09:54:06.578Z,37.1
2018-06-20T09:55:08.211Z,36.3
2018-06-20T09:56:09.854Z,35.9
2018-06-20T09:57:11.488Z,35.7
2018-06-20T09:58:13.123Z,35.9
2018-06-20T09:59:14.765Z,35.6
2018-06-20T10:00:16.400Z,35.1
2018-06-20T10:01:18.038Z,34.5
2018-06-20T10:02:19.675Z,34.5
2018-06-20T10:03:21.310Z,34.3
2018-06-20T10:04:22.948Z,33.8
2018-06-20T10:05:24.583Z,33.1
2018-06-20T10:06:26.263Z,33.5
2018-06-20T10:07:27.854Z,33.4
2018-06-20T10:08:29.497Z,33.5
2018-06-20T10:09:31.130Z,33.5
2018-06-20T10:10:33.470Z,33.2
2018-06-20T10:11:35.107Z,32.9
2018-06-20T10:12:36.741Z,33.2
2018-06-20T10:13:38.381Z,34.1
2018-06-20T10:14:40.014Z,33.9
2018-06-20T10:15:41.652Z,33.7
2018-06-20T10:16:43.286Z,33.7
2018-06-20T10:17:44.923Z,33.6
2018-06-20T10:18:46.554Z,33.3
2018-06-20T10:19:48.195Z,33.3
2018-06-20T10:20:49.832Z,32.7
2018-06-20T10:21:51.455Z,32.9
2018-06-20T10:22:53.094Z,33.1
2018-06-20T10:23:54.727Z,33.2
2018-06-20T10:24:56.376Z,33.7
2018-06-20T10:25:58.006Z,33.6
2018-06-20T10:26:59.638Z,34.2
2018-06-20T10:28:01.278Z,34.6
2018-06-20T10:29:02.913Z,34.9
2018-06-20T10:30:04.553Z,35.1
2018-06-20T10:31:06.185Z,35.1
2018-06-20T10:32:07.825Z,34.7
2018-06-20T10:33:09.454Z,34.2
2018-06-20T10:34:11.108Z,34.0
2018-06-20T10:35:12.727Z,33.7
2018-06-20T10:36:14.360Z,33.6
2018-06-20T10:37:16.001Z,33.8
2018-06-20T10:38:17.647Z,34.5
2018-06-20T10:39:19.277Z,34.7
2018-06-20T10:40:20.917Z,35.3
2018-06-20T10:41:22.553Z,35.8
2018-06-20T10:42:24.190Z,36.1
2018-06-20T10:43:25.831Z,36.3
2018-06-20T10:44:27.489Z,36.8
2018-06-20T10:45:29.125Z,36.8
2018-06-20T10:46:30.759Z,37.0
2018-06-20T10:47:32.400Z,37.4
2018-06-20T10:48:34.034Z,37.2
2018-06-20T10:49:35.676Z,37.2
2018-06-20T10:50:37.313Z,36.8
2018-06-20T10:51:38.956Z,37.0
2018-06-20T10:52:40.608Z,37.3
2018-06-20T10:53:42.237Z,37.8
2018-06-20T10:54:43.869Z,37.9
2018-06-20T10:55:45.513Z,38.3
2018-06-20T10:56:47.158Z,38.4
2018-06-20T10:57:48.790Z,38.4
2018-06-20T10:58:50.437Z,38.8
2018-06-20T10:59:52.074Z,39.3
2018-06-20T11:00:53.715Z,39.3
2018-06-20T11:01:55.359Z,38.9
2018-06-20T11:02:57.044Z,38.5
2018-06-20T11:03:58.640Z,38.8
2018-06-20T11:05:00.277Z,38.4
2018-06-20T11:06:01.927Z,37.9
2018-06-20T11:07:03.616Z,37.7
2018-06-20T11:08:05.206Z,37.9
2018-06-20T11:09:06.849Z,37.7
2018-06-20T11:10:08.489Z,37.4
2018-06-20T11:11:10.126Z,37.2
2018-06-20T11:12:12.748Z,37.5
2018-06-20T11:13:14.387Z,37.4
2018-06-20T11:14:16.028Z,37.1
2018-06-20T11:15:17.681Z,36.6
2018-06-20T11:16:19.295Z,36.1
2018-06-20T11:17:20.941Z,35.7
2018-06-20T11:18:22.578Z,35.3
2018-06-20T11:19:24.217Z,35.2
2018-06-20T11:20:25.852Z,35.6
2018-06-20T11:21:27.495Z,35.2
2018-06-20T11:22:29.126Z,35.3
2018-06-20T11:23:30.762Z,35.4
2018-06-20T11:24:32.403Z,35.2
2018-06-20T11:25:34.037Z,35.0
2018-06-20T11:26:35.677Z,34.6
2018-06-20T11:27:37.318Z,34.5
2018-06-20T11:28:38.955Z,34.1
2018-06-20T11:29:40.587Z,33.9
2018-06-20T11:30:42.225Z,34.4
2018-06-20T11:31:43.857Z,34.2
2018-06-20T11:32:45.494Z,34.5
2018-06-20T11:33:47.136Z,34.9
2018-06-20T11:34:48.772Z,35.6
2018-06-20T11:35:50.413Z,35.8
2018-06-20T11:36:52.046Z,35.7
2018-06-20T11:37:53.685Z,35.9
2018-06-20T11:38:55.315Z,35.8
2018-06-20T11:39:56.957Z,35.8
2018-06-20T11:40:58.593Z,36.3
2018-06-20T11:42:00.235Z,36.0
2018-06-20T11:43:01.883Z,35.5
2018-06-20T11:44:03.520Z,35.1
2018-06-20T11:45:05.157Z,35.8
2018-06-20T11:46:06.800Z,36.1
2018-06-20T11:47:08.433Z,36.4
2018-06-20T11:48:10.078Z,36.6
2018-06-20T11:49:11.715Z,36.1
2018-06-20T11:50:13.349Z,36.1
2018-06-20T11:51:14.990Z,36.2
2018-06-20T11:52:16.620Z,36.7
2018-06-20T11:53:18.263Z,37.3
2018-06-20T11:54:19.904Z,37.5
2018-06-20T11:55:21.542Z,37.7
2018-06-20T11:56:23.191Z,38.2
2018-06-20T11:57:24.823Z,38.4
2018-06-20T11:58:26.461Z,38.8
2018-06-20T11:59:28.117Z,38.7
2018-06-20T12:00:29.755Z,39.1
2018-06-20T12:01:31.398Z,39.3
2018-06-20T12:02:33.043Z,39.2
2018-06-20T12:03:34.679Z,39.6
2018-06-20T12:04:36.328Z,39.5
2018-06-20T12:05:37.963Z,39.8
2018-06-20T12:06:39.649Z,40.1
2018-06-20T12:07:41.257Z,40.0
2018-06-20T12:08:42.887Z,39.8
2018-06-20T12:09:44.532Z,39.7
2018-06-20T12:10:46.170Z,39.4
2018-06-20T12:11:47.816Z,39.6
2018-06-20T12:12:49.462Z,40.0
2018-06-20T12:13:51.107Z,40.4
2018-06-20T12:14:52.750Z,40.6
2018-06-20T12:15:54.393Z,40.4
2018-06-20T12:16:56.038Z,40.5
2018-06-20T12:17:57.679Z,40.4
2018-06-20T12:18:59.328Z,40.4
2018-06-20T12:20:00.964Z,40.2
2018-06-20T12:21:03.377Z,40.6
2018-06-20T12:22:05.097Z,40.4
2018-06-20T12:23:06.660Z,40.5
2018-06-20T12:24:08.305Z,40.1
2018-06-20T12:25:09.948Z,39.5
2018-06-20T12:26:11.593Z,39.8
2018-06-20T12:27:13.236Z,40.2
2018-06-20T12:28:14.921Z,40.4
2018-06-20T12:29:16.523Z,40.3
2018-06-20T12:30:18.322Z,40.6
2018-06-20T12:31:19.966Z,40.8
2018-06-20T12:32:21.605Z,40.3
2018-06-20T12:33:23.248Z,39.4
2018-06-20T12:34:24.883Z,40.0
2018-06-20T12:35:26.531Z,40.0
2018-06-20T12:36:28.208Z,40.4
2018-06-20T12:37:29.820Z,40.4
2018-06-20T12:38:31.463Z,40.7
2018-06-20T12:39:33.101Z,40.5
2018-06-20T12:40:34.752Z,40.5
2018-06-20T12:41:36.382Z,40.3
2018-06-20T12:42:38.030Z,40.3
2018-06-20T12:43:39.672Z,40.0
2018-06-20T12:44:41.313Z,39.9
2018-06-20T12:45:42.956Z,40.2
2018-06-20T12:46:44.604Z,39.5
2018-06-20T12:47:46.243Z,39.5
2018-06-20T12:48:47.888Z,39.2
2018-06-20T12:49:49.529Z,39.3
2018-06-20T12:50:52.044Z,39.3
2018-06-20T12:51:53.689Z,39.4
2018-06-20T12:52:55.323Z,39.5
2018-06-20T12:53:57.131Z,39.3
2018-06-20T12:54:58.768Z,38.8
2018-06-20T12:56:00.409Z,39.0
2018-06-20T12:57:02.051Z,38.8
2018-06-20T12:58:03.689Z,38.9
2018-06-20T12:59:05.329Z,38.6
2018-06-20T13:00:06.968Z,38.6
2018-06-20T13:01:08.615Z,38.8
2018-06-20T13:02:10.255Z,38.8
2018-06-20T13:03:11.896Z,38.8
2018-06-20T13:04:13.536Z,38.8
2018-06-20T13:05:15.171Z,38.8
2018-06-20T13:06:16.806Z,38.7
2018-06-20T13:07:18.449Z,38.7
2018-06-20T13:08:20.092Z,38.9
2018-06-20T13:09:21.727Z,38.9
2018-06-20T13:10:23.371Z,38.5
2018-06-20T13:11:25.004Z,38.4
2018-06-20T13:12:26.641Z,38.7
2018-06-20T13:13:28.287Z,38.6
2018-06-20T13:14:29.962Z,37.7
2018-06-20T13:15:31.605Z,37.2
2018-06-20T13:16:33.243Z,37.2
2018-06-20T13:17:34.875Z,37.3
2018-06-20T13:18:36.509Z,37.1
2018-06-20T13:19:38.153Z,37.3
2018-06-20T13:20:40.727Z,37.6
2018-06-20T13:21:42.375Z,37.8
2018-06-20T13:22:44.004Z,37.9
2018-06-20T13:23:45.650Z,38.0
2018-06-20T13:24:47.282Z,38.0
2018-06-20T13:25:48.922Z,38.3
2018-06-20T13:26:50.577Z,38.0
2018-06-20T13:27:52.263Z,37.7
2018-06-20T13:28:53.837Z,37.1
2018-06-20T13:29:55.473Z,36.8
2018-06-20T13:30:57.110Z,37.1
2018-06-20T13:31:58.752Z,37.2
2018-06-20T13:33:00.390Z,37.4
2018-06-20T13:34:02.026Z,37.6
2018-06-20T13:35:03.660Z,37.8
2018-06-20T13:36:05.296Z,38.0
2018-06-20T13:37:06.938Z,38.0
2018-06-20T13:38:08.572Z,38.1
2018-06-20T13:39:10.204Z,38.1
2018-06-20T13:40:11.845Z,38.1